Time;durP1;ratioP1;P1;durP2;ratioP2;P2;SDS_P1;SDS_P2;PMS_P1;PMS_P2;Temp;Humidity;BMP_temperature;BMP_pressure;BME280_temperature;BME280_humidity;BME280_pressure;Samples;Min_cycle;Max_cycle;Signal;HPM_P1;HPM_P2
2023/08/30 00:01:11;;;;;;;12.25;5.88;;;;;;;13.15;100.00;100822.47;5087349;28;20482;-73
2023/08/30 00:03:36;;;;;;;9.65;6.47;;;;;;;13.09;100.00;100811.78;5087825;28;20105;-74
2023/08/30 00:06:06;;;;;;;13.10;6.35;;;;;;;13.12;100.00;100811.34;5087756;28;20028;-74
2023/08/30 00:08:32;;;;;;;13.45;6.60;;;;;;;13.13;100.00;100811.16;5088918;28;20031;-73
2023/08/30 00:10:58;;;;;;;12.73;6.15;;;;;;;13.12;100.00;100808.69;5088893;28;20437;-74
2023/08/30 00:13:29;;;;;;;14.43;6.30;;;;;;;13.14;100.00;100804.75;5074242;28;20111;-73
2023/08/30 00:15:55;;;;;;;13.55;6.60;;;;;;;13.11;100.00;100794.47;5088670;28;20031;-73
2023/08/30 00:18:20;;;;;;;15.90;7.18;;;;;;;13.09;100.00;100804.56;5087213;28;20036;-74
2023/08/30 00:20:46;;;;;;;12.98;6.60;;;;;;;13.10;100.00;100802.75;5086951;28;20024;-73
2023/08/30 00:23:11;;;;;;;15.70;7.45;;;;;;;13.11;100.00;100802.50;5078894;28;20056;-73
2023/08/30 00:25:37;;;;;;;17.27;7.82;;;;;;;13.08;100.00;100802.13;5088843;28;20028;-74
2023/08/30 00:28:02;;;;;;;13.13;6.28;;;;;;;13.00;100.00;100800.50;5088793;28;20487;-73
2023/08/30 00:30:28;;;;;;;13.40;6.40;;;;;;;12.97;100.00;100800.09;5088473;28;20518;-73
2023/08/30 00:32:53;;;;;;;11.55;5.88;;;;;;;12.93;100.00;100797.03;5087437;28;20028;-73
2023/08/30 00:35:18;;;;;;;14.35;7.13;;;;;;;12.93;100.00;100792.50;5073540;28;20028;-73
2023/08/30 00:37:44;;;;;;;14.15;6.50;;;;;;;12.90;100.00;100792.94;5069376;28;20472;-74
2023/08/30 00:40:09;;;;;;;10.85;6.35;;;;;;;12.88;100.00;100788.81;5067820;28;20074;-74
2023/08/30 00:42:35;;;;;;;13.30;6.65;;;;;;;12.87;100.00;100785.34;5051839;28;20024;-73
2023/08/30 00:45:00;;;;;;;14.65;6.40;;;;;;;12.80;100.00;100773.00;5070325;28;20028;-74
2023/08/30 00:47:26;;;;;;;12.68;6.32;;;;;;;12.82;100.00;100789.69;5076393;28;20043;-73
2023/08/30 00:49:51;;;;;;;12.50;6.63;;;;;;;12.79;100.00;100788.25;5069103;28;20025;-74
2023/08/30 00:52:17;;;;;;;12.70;6.63;;;;;;;12.78;100.00;100780.44;5067818;28;20029;-73
2023/08/30 00:54:43;;;;;;;11.73;6.22;;;;;;;12.77;100.00;100781.47;5086347;28;20036;-73
2023/08/30 00:57:09;;;;;;;12.75;6.00;;;;;;;12.79;100.00;100772.19;5071166;28;20434;-73
2023/08/30 00:59:34;;;;;;;12.30;6.43;;;;;;;12.75;100.00;100768.28;5084825;28;20670;-74
2023/08/30 01:02:01;;;;;;;16.05;6.93;;;;;;;12.77;100.00;100768.09;5088501;28;20038;-74
2023/08/30 01:04:27;;;;;;;13.90;6.45;;;;;;;12.77;100.00;100773.44;5075723;28;20062;-74
2023/08/30 01:06:53;;;;;;;14.02;7.07;;;;;;;12.77;100.00;100765.41;5086905;28;20044;-74
2023/08/30 01:09:19;;;;;;;13.13;7.38;;;;;;;12.76;100.00;100772.63;5091677;28;20028;-74
2023/08/30 01:12:23;;;;;;;13.63;7.10;;;;;;;12.77;100.00;100778.81;5082862;28;20032;-73
2023/08/30 01:14:48;;;;;;;12.38;6.95;;;;;;;12.76;100.00;100771.78;5091706;28;20955;-74
2023/08/30 01:17:16;;;;;;;13.43;6.10;;;;;;;12.69;100.00;100764.63;5079769;28;20060;-73
2023/08/30 01:19:59;;;;;;;13.98;6.45;;;;;;;12.75;100.00;100762.13;5082331;28;20629;-74
2023/08/30 01:22:25;;;;;;;13.65;6.80;;;;;;;12.77;100.00;100770.78;5083586;28;20494;-73
2023/08/30 01:25:09;;;;;;;12.53;6.43;;;;;;;12.77;100.00;100765.41;5072238;28;20108;-74
2023/08/30 01:27:37;;;;;;;13.80;6.97;;;;;;;12.72;100.00;100752.66;5090099;28;20282;-73
2023/08/30 01:30:06;;;;;;;14.65;7.28;;;;;;;12.72;100.00;100761.50;5091522;28;20136;-74
2023/08/30 01:32:34;;;;;;;12.30;6.55;;;;;;;12.69;100.00;100750.44;5091668;28;20039;-73
2023/08/30 01:35:00;;;;;;;14.77;7.15;;;;;;;12.70;100.00;100760.09;5091521;28;20024;-73
2023/08/30 01:37:27;;;;;;;12.02;6.35;;;;;;;12.62;100.00;100758.47;5091391;28;20028;-73
2023/08/30 01:39:56;;;;;;;12.35;5.93;;;;;;;12.49;100.00;100747.81;5066677;28;20043;-73
2023/08/30 01:42:22;;;;;;;12.40;6.63;;;;;;;12.52;100.00;100754.59;5077383;28;20036;-73
2023/08/30 01:44:50;;;;;;;14.02;7.05;;;;;;;12.50;100.00;100763.69;5088197;28;20035;-74
2023/08/30 01:47:16;;;;;;;11.30;5.50;;;;;;;12.48;100.00;100759.56;5074515;28;20379;-73
2023/08/30 01:49:43;;;;;;;12.95;7.00;;;;;;;12.43;100.00;100760.19;5071837;28;20033;-73
2023/08/30 01:52:10;;;;;;;12.77;6.15;;;;;;;12.42;100.00;100757.75;5075709;28;20622;-74
2023/08/30 01:54:37;;;;;;;17.00;7.32;;;;;;;12.39;100.00;100761.66;5073290;28;20092;-73
2023/08/30 01:57:02;;;;;;;13.90;7.10;;;;;;;12.35;100.00;100751.59;5089899;28;20028;-73
2023/08/30 01:59:29;;;;;;;14.93;8.05;;;;;;;12.33;100.00;100757.13;5075223;28;20483;-74
2023/08/30 02:01:55;;;;;;;13.55;7.10;;;;;;;12.30;100.00;100754.88;5090655;28;20031;-73
2023/08/30 02:04:20;;;;;;;14.73;7.95;;;;;;;12.30;100.00;100759.41;5078652;28;20039;-73
2023/08/30 02:06:59;;;;;;;13.18;7.75;;;;;;;12.26;100.00;100754.50;5079628;28;20046;-73
2023/08/30 02:09:35;;;;;;;14.68;7.35;;;;;;;12.26;100.00;100759.00;5071391;28;20020;-74
2023/08/30 02:12:05;;;;;;;12.18;7.25;;;;;;;12.23;100.00;100756.75;5084205;28;20066;-73
2023/08/30 02:14:32;;;;;;;14.38;7.82;;;;;;;12.22;100.00;100755.94;5070426;28;20391;-74
2023/08/30 02:16:58;;;;;;;14.73;7.43;;;;;;;12.20;100.00;100741.13;5085914;28;20085;-74
2023/08/30 02:19:24;;;;;;;12.98;6.88;;;;;;;12.16;100.00;100745.28;5086532;28;20028;-74
2023/08/30 02:21:49;;;;;;;17.73;7.47;;;;;;;12.17;100.00;100745.03;5082044;28;20056;-74
2023/08/30 02:24:14;;;;;;;13.70;7.63;;;;;;;12.12;100.00;100736.84;5089177;28;20126;-73
2023/08/30 02:26:40;;;;;;;15.57;7.47;;;;;;;12.12;100.00;100733.34;5090595;28;20032;-74
2023/08/30 02:29:05;;;;;;;13.13;7.13;;;;;;;12.09;100.00;100733.78;5090471;28;20038;-73
2023/08/30 02:31:31;;;;;;;16.02;6.32;;;;;;;12.04;100.00;100739.72;5090577;28;20115;-74
2023/08/30 02:33:56;;;;;;;14.10;7.00;;;;;;;11.97;100.00;100731.75;5090046;28;20063;-74
2023/08/30 02:36:21;;;;;;;15.13;7.15;;;;;;;11.94;100.00;100736.66;5052899;28;20037;-73
2023/08/30 02:38:47;;;;;;;18.45;7.97;;;;;;;11.91;100.00;100732.56;5070966;28;20107;-74
2023/08/30 02:41:12;;;;;;;13.02;7.20;;;;;;;11.91;100.00;100731.75;5074284;28;20479;-74
2023/08/30 02:43:38;;;;;;;13.77;8.10;;;;;;;11.88;100.00;100732.97;5084602;28;20036;-74
2023/08/30 02:46:05;;;;;;;14.18;7.05;;;;;;;11.88;100.00;100727.63;5081711;28;20446;-74
2023/08/30 02:48:30;;;;;;;17.75;7.80;;;;;;;11.83;100.00;100716.72;5088731;28;20495;-73
2023/08/30 02:50:56;;;;;;;16.02;7.97;;;;;;;11.90;100.00;100724.75;5089904;28;20036;-73
2023/08/30 02:53:21;;;;;;;17.48;7.45;;;;;;;11.87;100.00;100723.34;5071623;28;20024;-73
2023/08/30 02:55:50;;;;;;;14.65;7.68;;;;;;;11.83;100.00;100712.19;5069226;28;20078;-73
2023/08/30 02:58:15;;;;;;;15.35;8.20;;;;;;;11.84;100.00;100718.34;5070376;28;20037;-73
2023/08/30 03:00:41;;;;;;;15.05;7.78;;;;;;;11.84;100.00;100710.31;5073023;28;20078;-73
2023/08/30 03:03:06;;;;;;;16.60;8.73;;;;;;;11.84;100.00;100696.97;5085530;28;20052;-74
2023/08/30 03:05:31;;;;;;;15.25;8.63;;;;;;;11.85;100.00;100696.78;5069766;28;20024;-73
2023/08/30 03:07:57;;;;;;;17.58;9.27;;;;;;;11.90;100.00;100703.38;5089593;28;20361;-73
2023/08/30 03:10:22;;;;;;;14.52;8.35;;;;;;;11.92;100.00;100706.66;5070421;28;20131;-73
2023/08/30 03:12:48;;;;;;;20.75;9.05;;;;;;;11.86;100.00;100689.59;5072829;28;20062;-73
2023/08/30 03:15:13;;;;;;;16.35;7.72;;;;;;;11.96;100.00;100705.22;5070233;28;20036;-73
2023/08/30 03:17:38;;;;;;;17.05;9.50;;;;;;;11.97;100.00;100707.69;5073871;28;20439;-73
2023/08/30 03:20:05;;;;;;;16.67;8.25;;;;;;;11.96;100.00;100698.00;5081213;28;20032;-73
2023/08/30 03:22:33;;;;;;;15.55;7.93;;;;;;;12.03;100.00;100706.84;5089332;28;20135;-73
2023/08/30 03:24:59;;;;;;;15.52;7.57;;;;;;;12.00;100.00;100696.56;5082971;28;20391;-73
2023/08/30 03:27:24;;;;;;;17.98;8.07;;;;;;;12.05;100.00;100698.59;5067600;28;20043;-73
2023/08/30 03:29:50;;;;;;;16.75;7.97;;;;;;;12.08;100.00;100698.19;5089262;28;20035;-74
2023/08/30 03:32:17;;;;;;;16.58;7.55;;;;;;;12.07;100.00;100688.53;5069997;28;20479;-73
2023/08/30 03:34:46;;;;;;;17.98;8.80;;;;;;;12.04;100.00;100688.94;5083248;28;20875;-74
2023/08/30 03:37:13;;;;;;;14.60;7.53;;;;;;;12.06;100.00;100689.56;5083615;28;20101;-73
2023/08/30 03:39:38;;;;;;;15.43;7.40;;;;;;;12.06;100.00;100682.34;5083411;28;20040;-73
2023/08/30 03:42:04;;;;;;;15.18;9.57;;;;;;;12.02;100.00;100662.41;5084747;28;20494;-73
2023/08/30 03:44:29;;;;;;;12.95;7.40;;;;;;;11.95;100.00;100653.63;5089043;28;20051;-73
2023/08/30 03:46:56;;;;;;;18.58;8.32;;;;;;;12.00;100.00;100661.00;5089073;28;20122;-74
2023/08/30 03:49:22;;;;;;;16.58;8.63;;;;;;;11.99;100.00;100654.00;5089090;28;20066;-74
2023/08/30 03:51:47;;;;;;;16.08;7.88;;;;;;;11.96;100.00;100652.56;5088983;28;20475;-73
2023/08/30 03:54:16;;;;;;;14.98;8.70;;;;;;;11.94;100.00;100643.94;5081898;28;20033;-73
2023/08/30 03:56:44;;;;;;;17.23;8.13;;;;;;;11.95;100.00;100634.09;5079258;28;20060;-73
2023/08/30 03:59:10;;;;;;;14.35;7.10;;;;;;;11.94;100.00;100629.75;5071116;28;20033;-73
2023/08/30 04:01:36;;;;;;;17.48;8.20;;;;;;;11.96;100.00;100631.19;5068224;28;20032;-73
2023/08/30 04:04:01;;;;;;;15.35;8.52;;;;;;;11.91;100.00;100620.31;5088892;28;20024;-73
2023/08/30 04:06:27;;;;;;;17.00;9.45;;;;;;;11.94;100.00;100624.41;5088709;28;20406;-73
2023/08/30 04:08:52;;;;;;;17.60;9.07;;;;;;;11.94;100.00;100621.75;5069189;28;20040;-73
2023/08/30 04:11:17;;;;;;;18.85;9.82;;;;;;;11.94;100.00;100614.53;5069482;28;20081;-73
2023/08/30 04:13:43;;;;;;;17.55;8.43;;;;;;;11.92;100.00;100610.44;5069622;28;20162;-74
2023/08/30 04:16:08;;;;;;;15.52;8.40;;;;;;;11.92;100.00;100600.59;5080706;28;20077;-74
2023/08/30 04:18:33;;;;;;;16.75;8.05;;;;;;;11.87;100.00;100592.38;5088826;28;20040;-73
2023/08/30 04:20:59;;;;;;;17.35;8.23;;;;;;;11.88;100.00;100591.34;5073389;28;20016;-73
2023/08/30 04:23:24;;;;;;;19.98;9.15;;;;;;;11.92;100.00;100605.94;5085395;28;20162;-73
2023/08/30 04:25:50;;;;;;;17.67;9.02;;;;;;;11.93;100.00;100601.41;5079438;28;20033;-73
2023/08/30 04:28:15;;;;;;;18.58;8.82;;;;;;;11.99;100.00;100608.56;5082766;28;20485;-73
2023/08/30 04:30:40;;;;;;;17.95;11.07;;;;;;;11.94;100.00;100584.31;5088637;28;20036;-73
2023/08/30 04:33:06;;;;;;;19.63;10.25;;;;;;;12.05;100.00;100600.53;5087598;28;20024;-72
2023/08/30 04:35:32;;;;;;;18.35;9.35;;;;;;;12.03;100.00;100591.91;5075571;28;20044;-73
2023/08/30 04:37:59;;;;;;;20.30;11.27;;;;;;;12.08;100.00;100601.97;5083000;28;20024;-73
2023/08/30 04:40:24;;;;;;;18.63;8.68;;;;;;;12.03;100.00;100589.22;5073056;28;20108;-73
2023/08/30 04:42:50;;;;;;;18.67;10.48;;;;;;;11.98;100.00;100589.03;5073910;28;20024;-73
2023/08/30 04:45:15;;;;;;;17.25;9.68;;;;;;;12.02;100.00;100595.59;5088502;28;20032;-73
2023/08/30 04:47:42;;;;;;;18.27;9.98;;;;;;;12.01;100.00;100601.97;5091995;28;20024;-73
2023/08/30 04:50:08;;;;;;;17.48;9.45;;;;;;;12.01;100.00;100603.84;5087653;28;20499;-73
2023/08/30 04:52:34;;;;;;;15.82;9.73;;;;;;;12.04;100.00;100596.19;5072896;28;20039;-73
2023/08/30 04:54:59;;;;;;;19.88;10.18;;;;;;;12.12;100.00;100605.03;5084537;28;20061;-73
2023/08/30 04:57:25;;;;;;;18.35;10.77;;;;;;;12.13;100.00;100588.78;5072729;28;20110;-73
2023/08/30 04:59:50;;;;;;;18.35;9.77;;;;;;;12.18;100.00;100590.78;5072781;28;21085;-73
2023/08/30 05:02:16;;;;;;;19.63;10.35;;;;;;;12.19;100.00;100582.56;5083997;28;20115;-73
2023/08/30 05:04:41;;;;;;;19.65;10.50;;;;;;;12.21;100.00;100577.84;5080922;28;20028;-74
2023/08/30 05:07:06;;;;;;;22.60;11.00;;;;;;;12.28;100.00;100578.59;5088886;28;20423;-74
2023/08/30 05:09:33;;;;;;;20.25;12.43;;;;;;;12.26;100.00;100563.78;5072217;28;20041;-74
2023/08/30 05:11:58;;;;;;;18.50;9.77;;;;;;;12.33;100.00;100567.25;5085109;28;20472;-73
2023/08/30 05:14:24;;;;;;;19.63;10.90;;;;;;;12.37;100.00;100565.00;5091239;28;20116;-73
2023/08/30 05:16:50;;;;;;;21.38;11.18;;;;;;;12.39;100.00;100568.25;5090655;28;20089;-73
2023/08/30 05:19:16;;;;;;;19.58;10.35;;;;;;;12.39;100.00;100560.22;5080999;28;20119;-73
2023/08/30 05:21:42;;;;;;;22.90;11.93;;;;;;;12.34;100.00;100544.84;5085444;28;21021;-73
2023/08/30 05:24:08;;;;;;;19.98;11.43;;;;;;;12.44;100.00;100566.59;5091989;28;20062;-74
2023/08/30 05:26:33;;;;;;;19.73;10.45;;;;;;;12.45;100.00;100562.06;5072064;28;20391;-74
2023/08/30 05:28:59;;;;;;;20.65;10.38;;;;;;;12.50;100.00;100559.56;5083953;28;20028;-74
2023/08/30 05:31:24;;;;;;;18.65;10.45;;;;;;;12.52;100.00;100553.97;5091492;28;20043;-73
2023/08/30 05:33:50;;;;;;;20.65;10.70;;;;;;;12.57;100.00;100560.31;5091514;28;20031;-74
2023/08/30 05:36:15;;;;;;;17.95;10.90;;;;;;;12.60;100.00;100554.53;5089058;28;20436;-73
2023/08/30 05:38:41;;;;;;;19.75;10.93;;;;;;;12.62;100.00;100547.09;5083343;28;20050;-73
2023/08/30 05:41:07;;;;;;;19.83;10.13;;;;;;;12.70;100.00;100551.38;5070565;28;20464;-74
2023/08/30 05:43:32;;;;;;;19.42;10.25;;;;;;;12.67;100.00;100531.22;5083494;28;20031;-73
2023/08/30 05:46:02;;;;;;;18.55;9.15;;;;;;;12.77;100.00;100537.94;5090159;28;20467;-73
2023/08/30 05:48:27;;;;;;;18.10;10.35;;;;;;;12.80;100.00;100540.19;5090046;28;20386;-73
2023/08/30 05:50:53;;;;;;;18.67;10.93;;;;;;;12.82;100.00;100536.25;5079516;28;20029;-73
2023/08/30 05:53:18;;;;;;;17.25;9.70;;;;;;;12.85;100.00;100535.00;5071703;28;20115;-73
2023/08/30 05:55:43;;;;;;;17.98;9.98;;;;;;;12.87;100.00;100535.59;5071354;28;20035;-73
2023/08/30 05:58:09;;;;;;;18.25;9.38;;;;;;;12.92;100.00;100541.13;5071498;28;20028;-73
2023/08/30 06:00:34;;;;;;;17.65;11.48;;;;;;;12.90;100.00;100537.81;5071304;28;20119;-73
2023/08/30 06:02:59;;;;;;;19.23;9.10;;;;;;;12.93;100.00;100542.75;5070127;28;20511;-73
2023/08/30 06:05:26;;;;;;;19.60;10.88;;;;;;;12.97;100.00;100543.94;5071201;28;20025;-73
2023/08/30 06:07:51;;;;;;;18.30;9.55;;;;;;;12.92;100.00;100533.09;5071195;28;20024;-73
2023/08/30 06:10:16;;;;;;;17.48;10.05;;;;;;;13.03;100.00;100552.94;5089436;28;20028;-73
2023/08/30 06:12:42;;;;;;;20.48;9.70;;;;;;;13.07;100.00;100544.28;5076050;28;20037;-74
2023/08/30 06:15:07;;;;;;;19.92;10.18;;;;;;;13.10;100.00;100543.00;5069623;28;20138;-73
2023/08/30 06:17:33;;;;;;;16.90;9.65;;;;;;;13.11;100.00;100533.94;5069679;28;20063;-73
2023/08/30 06:19:59;;;;;;;18.45;9.70;;;;;;;13.16;100.00;100539.44;5072160;28;20039;-73
2023/08/30 06:22:24;;;;;;;17.63;10.35;;;;;;;13.20;100.00;100534.44;5070593;28;20053;-73
2023/08/30 06:24:50;;;;;;;16.15;9.73;;;;;;;13.23;100.00;100534.00;5076761;28;20085;-73
2023/08/30 06:27:16;;;;;;;19.13;9.18;;;;;;;13.18;100.00;100520.47;5082987;28;20035;-73
2023/08/30 06:29:41;;;;;;;22.95;11.23;;;;;;;13.25;100.00;100524.69;5079978;28;20251;-73
2023/08/30 06:32:07;;;;;;;20.38;10.85;;;;;;;13.30;100.00;100522.22;5071905;28;20067;-72
2023/08/30 06:34:32;;;;;;;16.50;8.88;;;;;;;13.34;100.00;100533.31;5070688;28;20037;-72
2023/08/30 06:36:57;;;;;;;20.33;9.60;;;;;;;13.33;100.00;100527.13;5069258;28;20040;-72
2023/08/30 06:39:23;;;;;;;19.13;10.30;;;;;;;13.37;100.00;100522.97;5083136;28;20483;-72
2023/08/30 06:41:48;;;;;;;17.80;10.27;;;;;;;13.43;100.00;100529.28;5076664;28;20468;-78
2023/08/30 06:44:13;;;;;;;18.50;10.30;;;;;;;13.38;100.00;100519.22;5085595;28;20450;-78
2023/08/30 06:46:39;;;;;;;19.13;9.65;;;;;;;13.45;100.00;100513.81;5068067;28;20040;-73
2023/08/30 06:49:05;;;;;;;18.98;9.82;;;;;;;13.52;100.00;100524.47;5066347;28;20133;-73
2023/08/30 06:51:30;;;;;;;23.52;10.60;;;;;;;13.53;100.00;100523.41;5065981;28;20036;-73
2023/08/30 06:54:00;;;;;;;17.90;9.38;;;;;;;13.52;100.00;100532.50;5065894;28;20024;-73
2023/08/30 06:56:26;;;;;;;18.50;10.57;;;;;;;13.55;100.00;100535.53;5068049;28;20063;-73
2023/08/30 06:58:51;;;;;;;18.77;10.18;;;;;;;13.56;100.00;100544.41;5076468;28;20368;-74
2023/08/30 07:01:16;;;;;;;19.33;10.27;;;;;;;13.54;100.00;100549.97;5086622;28;20059;-73
2023/08/30 07:03:43;;;;;;;20.52;10.55;;;;;;;13.47;100.00;100530.47;5071077;28;20028;-72
2023/08/30 07:06:09;;;;;;;15.48;9.65;;;;;;;13.51;100.00;100549.59;5067754;28;20079;-72
2023/08/30 07:08:34;;;;;;;16.48;10.25;;;;;;;13.49;100.00;100540.97;5065897;28;20122;-72
2023/08/30 07:11:00;;;;;;;18.15;9.68;;;;;;;13.45;100.00;100539.78;5066481;28;20033;-72
2023/08/30 07:13:25;;;;;;;18.33;10.07;;;;;;;13.42;100.00;100541.06;5067153;28;20491;-72
2023/08/30 07:15:51;;;;;;;19.90;11.05;;;;;;;13.42;100.00;100541.06;5067259;28;20032;-72
2023/08/30 07:18:16;;;;;;;16.00;9.35;;;;;;;13.34;100.00;100542.16;5085789;28;20040;-72
2023/08/30 07:20:42;;;;;;;18.55;10.20;;;;;;;13.31;100.00;100533.75;5064584;28;20017;-72
2023/08/30 07:23:08;;;;;;;15.85;9.07;;;;;;;13.25;100.00;100521.22;5065820;28;20059;-72
2023/08/30 07:25:33;;;;;;;19.70;11.35;;;;;;;13.13;100.00;100497.84;5081391;28;20033;-72
2023/08/30 07:28:00;;;;;;;18.85;9.80;;;;;;;13.12;100.00;100504.22;5067413;28;20409;-68
2023/08/30 07:30:25;;;;;;;16.75;8.93;;;;;;;13.06;100.00;100501.63;5080463;28;20858;-72
2023/08/30 07:32:51;;;;;;;22.25;9.60;;;;;;;13.03;100.00;100499.41;5074675;28;20028;-73
2023/08/30 07:35:16;;;;;;;18.13;9.45;;;;;;;12.93;100.00;100489.19;5077973;28;20047;-73
2023/08/30 07:37:42;;;;;;;19.77;10.60;;;;;;;12.92;100.00;100493.75;5081845;28;20035;-76
2023/08/30 07:40:08;;;;;;;20.40;8.98;;;;;;;12.94;100.00;100494.34;5075310;28;20012;-75
2023/08/30 07:42:33;;;;;;;19.58;9.15;;;;;;;12.95;100.00;100489.81;5078852;28;20036;-71
2023/08/30 07:44:59;;;;;;;21.38;12.68;;;;;;;12.95;100.00;100489.81;5086762;28;20038;-71
2023/08/30 07:47:24;;;;;;;18.45;9.68;;;;;;;12.91;100.00;100486.72;5085990;28;20525;-71
2023/08/30 07:49:50;;;;;;;21.10;10.93;;;;;;;12.98;100.00;100488.53;5086047;28;20035;-70
2023/08/30 07:52:15;;;;;;;20.08;10.48;;;;;;;12.93;100.00;100481.97;5072534;28;20025;-71
2023/08/30 07:54:41;;;;;;;20.60;9.02;;;;;;;12.98;100.00;100475.16;5067373;28;20038;-71
2023/08/30 07:57:06;;;;;;;18.65;9.35;;;;;;;12.97;100.00;100473.50;5085931;28;20016;-71
2023/08/30 07:59:36;;;;;;;18.50;8.70;;;;;;;13.05;100.00;100475.91;5085242;28;20097;-71
2023/08/30 08:02:02;;;;;;;18.90;9.32;;;;;;;13.05;100.00;100466.03;5086515;28;20573;-71
2023/08/30 08:04:28;;;;;;;17.33;7.70;;;;;;;13.06;100.00;100464.97;5084632;28;20475;-72
2023/08/30 08:06:54;;;;;;;19.65;9.70;;;;;;;13.10;100.00;100468.03;5081847;28;20046;-71
2023/08/30 08:09:21;;;;;;;17.30;9.45;;;;;;;13.11;100.00;100467.00;5084129;28;20024;-71
2023/08/30 08:11:48;;;;;;;15.23;8.05;;;;;;;13.16;100.00;100469.81;5069870;28;20115;-71
2023/08/30 08:14:13;;;;;;;16.90;9.32;;;;;;;13.19;100.00;100471.22;5070368;28;20033;-71
2023/08/30 08:16:39;;;;;;;14.70;7.28;;;;;;;13.22;100.00;100468.91;5070588;28;20024;-71
2023/08/30 08:19:05;;;;;;;17.17;7.60;;;;;;;13.24;100.00;100466.03;5070593;28;20484;-71
2023/08/30 08:21:30;;;;;;;13.45;7.15;;;;;;;13.22;100.00;100468.09;5088140;28;20039;-72
2023/08/30 08:23:56;;;;;;;12.30;5.93;;;;;;;13.21;100.00;100466.47;5088418;28;20147;-68
2023/08/30 08:26:21;;;;;;;14.65;7.60;;;;;;;13.22;100.00;100466.22;5083727;28;20148;-71
2023/08/30 08:28:46;;;;;;;12.95;7.30;;;;;;;13.25;100.00;100462.28;5071034;28;20029;-69
2023/08/30 08:31:12;;;;;;;12.35;5.68;;;;;;;13.22;100.00;100468.91;5070391;28;20082;-69
2023/08/30 08:33:37;;;;;;;11.77;5.38;;;;;;;13.22;100.00;100471.59;5070775;28;20055;-70
2023/08/30 08:36:03;;;;;;;12.50;5.57;;;;;;;13.22;100.00;100460.06;5070664;28;20078;-69
2023/08/30 08:38:28;;;;;;;11.35;4.80;;;;;;;13.24;100.00;100463.34;5077090;28;20032;-77
2023/08/30 08:41:01;;;;;;;11.20;5.00;;;;;;;13.25;100.00;100459.63;5078509;28;20029;-71
2023/08/30 08:43:29;;;;;;;6.75;4.40;;;;;;;13.21;100.00;100453.91;5081251;28;20145;-72
2023/08/30 08:45:59;;;;;;;10.77;4.97;;;;;;;13.27;100.00;100458.38;5088260;28;20035;-70
2023/08/30 08:48:28;;;;;;;9.38;5.13;;;;;;;13.26;100.00;100453.22;5073117;28;20967;-70
2023/08/30 08:50:55;;;;;;;10.85;4.85;;;;;;;13.32;100.00;100453.16;5088776;28;20035;-70
2023/08/30 08:53:21;;;;;;;7.55;4.32;;;;;;;13.37;100.00;100450.63;5089026;28;20069;-70
2023/08/30 08:55:48;;;;;;;10.18;5.90;;;;;;;13.43;100.00;100446.25;5088959;28;20028;-70
2023/08/30 08:58:14;;;;;;;10.27;5.45;;;;;;;13.43;100.00;100451.59;5089084;28;20051;-70
2023/08/30 09:00:42;;;;;;;11.25;5.45;;;;;;;13.45;100.00;100448.69;5088424;28;20443;-70
2023/08/30 09:03:08;;;;;;;10.95;5.32;;;;;;;13.43;100.00;100443.56;5089372;28;20364;-70
2023/08/30 09:05:37;;;;;;;8.57;5.40;;;;;;;13.49;100.00;100442.69;5089479;28;20032;-70
2023/08/30 09:08:03;;;;;;;9.50;4.35;;;;;;;13.50;100.00;100446.16;5089716;28;20490;-69
2023/08/30 09:10:28;;;;;;;11.00;5.00;;;;;;;13.53;100.00;100448.38;5082950;28;20025;-70
2023/08/30 09:12:54;;;;;;;13.13;7.88;;;;;;;13.57;100.00;100453.06;5069649;28;20090;-71
2023/08/30 09:15:19;;;;;;;7.55;4.68;;;;;;;13.56;100.00;100443.38;5089037;28;20047;-69
2023/08/30 09:17:46;;;;;;;10.02;5.95;;;;;;;13.62;100.00;100443.53;5087506;28;20032;-70
2023/08/30 09:20:12;;;;;;;6.43;4.45;;;;;;;13.71;100.00;100443.00;5088055;28;20056;-71
2023/08/30 09:22:38;;;;;;;7.43;4.45;;;;;;;13.80;100.00;100446.16;5088908;28;20063;-71
2023/08/30 09:25:05;;;;;;;9.02;4.60;;;;;;;13.91;100.00;100441.88;5087610;28;20024;-71
2023/08/30 09:27:33;;;;;;;8.60;4.22;;;;;;;13.96;100.00;100447.38;5087104;28;20406;-71
2023/08/30 09:29:59;;;;;;;11.93;5.88;;;;;;;14.10;100.00;100458.75;5087996;28;20495;-70
2023/08/30 09:32:25;;;;;;;8.88;5.13;;;;;;;14.30;100.00;100442.31;5087672;28;20066;-70
2023/08/30 09:34:51;;;;;;;10.63;5.90;;;;;;;14.71;100.00;100449.50;5084133;28;20039;-70
2023/08/30 09:37:21;;;;;;;10.35;5.43;;;;;;;14.88;100.00;100453.13;5079095;28;20582;-71
2023/08/30 09:39:52;;;;;;;8.88;4.72;;;;;;;15.06;100.00;100460.22;5086153;28;20759;-68
2023/08/30 09:42:18;;;;;;;9.48;5.07;;;;;;;15.20;100.00;100454.59;5070839;28;20375;-71
2023/08/30 09:44:44;;;;;;;8.02;4.53;;;;;;;15.22;100.00;100456.00;5070147;28;20036;-71
2023/08/30 09:47:09;;;;;;;11.45;5.22;;;;;;;15.18;100.00;100452.13;5066352;28;20036;-71
2023/08/30 09:49:47;;;;;;;9.52;5.80;;;;;;;15.08;100.00;100449.22;5065785;28;20055;-71
2023/08/30 09:52:15;;;;;;;8.63;4.90;;;;;;;15.00;100.00;100450.41;5086351;28;20036;-71
2023/08/30 09:54:43;;;;;;;9.43;5.78;;;;;;;14.91;100.00;100441.09;5087162;28;20031;-71
2023/08/30 09:57:10;;;;;;;10.30;4.57;;;;;;;14.97;100.00;100450.88;5086780;28;20027;-71
2023/08/30 09:59:37;;;;;;;8.77;5.38;;;;;;;14.97;100.00;100444.69;5086740;28;20028;-71
2023/08/30 10:02:04;;;;;;;8.55;4.70;;;;;;;15.08;100.00;100451.91;5086114;28;20024;-71
2023/08/30 10:04:31;;;;;;;7.35;4.28;;;;;;;15.08;100.00;100444.66;5085308;28;20799;-71
2023/08/30 10:06:58;;;;;;;6.95;4.38;;;;;;;15.15;100.00;100446.44;5076014;28;20032;-71
2023/08/30 10:09:24;;;;;;;10.80;5.32;;;;;;;15.20;100.00;100439.28;5079523;28;20032;-72
2023/08/30 10:11:50;;;;;;;8.32;4.97;;;;;;;15.27;100.00;100445.34;5068378;28;20039;-72
2023/08/30 10:14:16;;;;;;;8.52;4.90;;;;;;;15.39;100.00;100447.19;5086581;28;20038;-72
2023/08/30 10:16:50;;;;;;;9.43;4.93;;;;;;;15.49;100.00;100431.25;5082576;28;20059;-72
2023/08/30 10:19:19;;;;;;;8.70;5.38;;;;;;;15.63;100.00;100451.41;5086410;28;20059;-72
2023/08/30 10:21:48;;;;;;;11.98;5.35;;;;;;;15.76;100.00;100431.50;5069570;28;20017;-71
2023/08/30 10:24:16;;;;;;;12.32;6.50;;;;;;;16.02;100.00;100430.09;5087004;28;20024;-72
2023/08/30 10:26:44;;;;;;;11.50;5.65;;;;;;;16.33;100.00;100425.22;5086817;28;20027;-72
2023/08/30 10:29:11;;;;;;;10.57;5.65;;;;;;;16.59;100.00;100424.53;5087399;28;20032;-72
2023/08/30 10:31:39;;;;;;;12.00;5.68;;;;;;;16.55;100.00;100426.09;5086358;28;20479;-72
2023/08/30 10:34:14;;;;;;;16.15;7.05;;;;;;;16.53;100.00;100417.47;5085031;28;20028;-72
2023/08/30 10:36:39;;;;;;;13.88;7.13;;;;;;;16.55;100.00;100418.00;5087097;28;20577;-72
2023/08/30 10:39:14;;;;;;;13.40;6.60;;;;;;;16.59;100.00;100424.53;5084084;28;20043;-72
2023/08/30 10:41:56;;;;;;;10.90;6.07;;;;;;;16.78;100.00;100422.41;5083282;28;20028;-72
2023/08/30 10:44:22;;;;;;;11.65;6.38;;;;;;;16.78;100.00;100419.72;5086373;28;20963;-73
2023/08/30 10:46:53;;;;;;;14.38;6.95;;;;;;;16.76;100.00;100418.31;5085467;28;20458;-73
2023/08/30 10:49:18;;;;;;;11.95;6.35;;;;;;;16.88;100.00;100418.25;5070429;28;20024;-72
2023/08/30 10:51:44;;;;;;;11.95;6.88;;;;;;;17.11;100.00;100414.47;5085682;28;20082;-73
2023/08/30 10:54:17;;;;;;;10.40;6.30;;;;;;;17.20;100.00;100416.50;5086881;28;20028;-73
2023/08/30 10:57:02;;;;;;;11.68;6.88;;;;;;;17.32;100.00;100419.06;5086840;28;20036;-73
2023/08/30 10:59:29;;;;;;;10.93;6.00;;;;;;;17.24;100.00;100420.31;5086540;28;20027;-73
2023/08/30 11:01:55;;;;;;;12.60;6.70;;;;;;;17.42;100.00;100415.66;5068095;28;20051;-73
2023/08/30 11:04:22;;;;;;;12.48;7.15;;;;;;;17.53;100.00;100412.00;5086363;28;20027;-73
2023/08/30 11:06:49;;;;;;;13.30;7.20;;;;;;;17.78;100.00;100406.03;5068422;28;20031;-73